Time;durP1;ratioP1;P1;durP2;ratioP2;P2;SDS_P1;SDS_P2;PMS_P1;PMS_P2;Temp;Humidity;BMP_temperature;BMP_pressure;BME280_temperature;BME280_humidity;BME280_pressure;Samples;Min_cycle;Max_cycle;Signal;HPM_P1;HPM_P2
2022/03/23 00:01:03;;;;;;;17.58;9.02;;;1.00;51.60;;;;;;5062517;28;20101;-52
2022/03/23 00:03:49;;;;;;;13.23;7.78;;;0.90;52.40;;;;;;5050233;28;20037;-45
2022/03/23 00:06:16;;;;;;;14.00;8.38;;;0.80;55.60;;;;;;5068713;28;20036;-44
2022/03/23 00:08:42;;;;;;;15.30;9.10;;;0.80;54.30;;;;;;5052594;28;20033;-47
2022/03/23 00:11:08;;;;;;;17.48;9.23;;;0.70;51.70;;;;;;5069396;28;20239;-45
2022/03/23 00:13:33;;;;;;;17.23;8.40;;;0.70;51.10;;;;;;5051882;28;20741;-45
2022/03/23 00:15:59;;;;;;;11.70;7.55;;;0.60;51.30;;;;;;5069312;28;20021;-46
2022/03/23 00:18:25;;;;;;;17.85;8.90;;;0.60;53.10;;;;;;5067038;28;20021;-46
2022/03/23 00:20:50;;;;;;;13.07;7.28;;;0.60;55.10;;;;;;5069205;28;20044;-45
2022/03/23 00:23:16;;;;;;;15.63;9.00;;;0.60;57.10;;;;;;5066779;28;20500;-44
2022/03/23 00:25:42;;;;;;;18.25;9.30;;;0.50;55.80;;;;;;5069068;28;20049;-48
2022/03/23 00:28:07;;;;;;;13.88;8.15;;;0.50;53.20;;;;;;5064844;28;20047;-45
2022/03/23 00:30:34;;;;;;;18.38;9.57;;;0.40;52.80;;;;;;5068844;28;20021;-44
2022/03/23 00:33:02;;;;;;;19.05;9.32;;;0.40;53.60;;;;;;5049192;28;20037;-46
2022/03/23 00:35:28;;;;;;;23.30;9.70;;;0.40;54.80;;;;;;5066599;28;20043;-44
2022/03/23 00:37:55;;;;;;;15.07;9.38;;;0.30;55.50;;;;;;5049383;28;20089;-44
2022/03/23 00:40:21;;;;;;;20.98;10.57;;;0.30;54.50;;;;;;5048217;28;20037;-46
2022/03/23 00:42:47;;;;;;;19.88;9.07;;;0.30;54.40;;;;;;5068192;28;20458;-46
2022/03/23 00:45:12;;;;;;;13.23;7.85;;;0.30;54.90;;;;;;5049323;28;20028;-44
2022/03/23 00:47:39;;;;;;;17.10;8.23;;;0.30;56.40;;;;;;5050434;28;20548;-45
2022/03/23 00:50:05;;;;;;;18.38;8.75;;;0.30;60.50;;;;;;5049568;28;20032;-47
2022/03/23 00:52:31;;;;;;;17.55;7.97;;;0.30;60.90;;;;;;5066968;28;20115;-47
2022/03/23 00:54:56;;;;;;;17.85;8.25;;;0.20;59.70;;;;;;5050578;28;20591;-46
2022/03/23 00:58:02;;;;;;;15.07;8.00;;;0.20;58.80;;;;;;5067748;28;20040;-47
2022/03/23 01:01:29;;;;;;;13.73;7.68;;;0.10;58.60;;;;;;5062718;28;20040;-46
2022/03/23 01:04:53;;;;;;;16.85;8.07;;;0.10;59.70;;;;;;5051660;28;20048;-44
2022/03/23 01:08:18;;;;;;;15.10;8.18;;;0.00;59.40;;;;;;5067233;28;20051;-44
2022/03/23 01:11:44;;;;;;;15.40;7.95;;;0.00;61.70;;;;;;5063181;28;20047;-46
2022/03/23 01:15:09;;;;;;;14.45;6.97;;;-0.10;65.20;;;;;;5053084;28;20029;-44
2022/03/23 01:18:34;;;;;;;15.63;7.32;;;-0.20;63.80;;;;;;5062189;28;20603;-45
2022/03/23 01:21:59;;;;;;;16.15;8.00;;;-0.20;67.10;;;;;;5060335;28;20032;-44
2022/03/23 01:25:25;;;;;;;13.93;7.43;;;-0.20;64.30;;;;;;5053721;28;20106;-48
2022/03/23 01:28:50;;;;;;;11.02;6.07;;;-0.30;66.60;;;;;;5050338;28;20174;-46
2022/03/23 01:32:16;;;;;;;13.80;6.85;;;-0.30;70.40;;;;;;5049588;28;20049;-46
2022/03/23 01:35:41;;;;;;;16.50;7.93;;;-0.30;79.40;;;;;;5044977;28;20163;-44
2022/03/23 01:39:06;;;;;;;14.23;7.25;;;-0.30;79.60;;;;;;5060674;28;20559;-44
2022/03/23 01:42:32;;;;;;;13.38;6.60;;;-0.30;72.70;;;;;;5053915;28;20056;-45
2022/03/23 01:45:57;;;;;;;16.70;7.60;;;-0.30;68.50;;;;;;5059446;28;20032;-46
2022/03/23 01:49:22;;;;;;;16.63;7.97;;;-0.40;71.20;;;;;;5040357;28;20064;-51
2022/03/23 01:52:48;;;;;;;15.43;7.88;;;-0.40;69.90;;;;;;5061754;28;20029;-47
2022/03/23 01:56:14;;;;;;;14.10;7.50;;;-0.50;68.40;;;;;;5062390;28;20203;-49
2022/03/23 01:59:38;;;;;;;14.48;6.93;;;-0.50;71.80;;;;;;5055186;28;20599;-45
2022/03/23 02:03:04;;;;;;;14.15;6.70;;;-0.60;76.60;;;;;;5060993;28;20101;-45
2022/03/23 02:06:29;;;;;;;18.02;9.00;;;-0.60;82.50;;;;;;5041635;28;20549;-49
2022/03/23 02:09:55;;;;;;;18.92;8.75;;;-0.60;82.50;;;;;;5061019;28;20032;-46
2022/03/23 02:13:20;;;;;;;20.20;8.65;;;-0.60;78.00;;;;;;5048055;28;20409;-51
2022/03/23 02:16:45;;;;;;;20.10;9.63;;;-0.70;79.80;;;;;;5055573;28;20036;-47
2022/03/23 02:20:11;;;;;;;16.38;7.13;;;-0.70;77.80;;;;;;5055720;28;20033;-47
2022/03/23 02:23:36;;;;;;;18.58;8.75;;;-0.70;76.90;;;;;;5046879;28;20098;-45
2022/03/23 02:27:01;;;;;;;20.73;9.18;;;-0.70;83.50;;;;;;5066407;28;20514;-46
2022/03/23 02:30:27;;;;;;;17.45;8.15;;;-0.80;78.90;;;;;;5055307;28;20048;-48
2022/03/23 02:33:52;;;;;;;20.60;9.40;;;-0.80;83.70;;;;;;5039464;28;20043;-45
2022/03/23 02:37:18;;;;;;;23.55;9.50;;;-0.80;78.40;;;;;;5061595;28;20040;-47
2022/03/23 02:40:43;;;;;;;21.33;9.57;;;-0.80;80.50;;;;;;5026667;28;20045;-45
2022/03/23 02:44:09;;;;;;;12.90;6.53;;;-0.90;79.80;;;;;;5057053;28;20033;-47
2022/03/23 02:47:34;;;;;;;17.23;8.10;;;-0.90;81.60;;;;;;5043363;28;20634;-46
2022/03/23 02:50:59;;;;;;;19.08;7.43;;;-1.00;86.20;;;;;;5065410;28;20040;-45
2022/03/23 03:04:34;;;;;;;15.40;7.45;;;-1.00;85.20;;;;;;5063105;28;20117;-45
2022/03/23 03:08:45;;;;;;;20.13;8.70;;;-1.10;90.80;;;;;;5062674;28;20039;-45
2022/03/23 03:11:25;;;;;;;19.58;8.25;;;-1.10;88.70;;;;;;5040182;28;20532;-44
2022/03/23 03:14:51;;;;;;;16.23;7.68;;;-1.10;80.50;;;;;;5063408;28;20040;-45
2022/03/23 03:18:17;;;;;;;14.07;6.70;;;-1.10;89.80;;;;;;5054405;28;20479;-44
2022/03/23 03:21:45;;;;;;;14.05;7.47;;;-1.20;92.00;;;;;;5065564;28;20041;-45
2022/03/23 03:24:50;;;;;;;;;;;-1.20;94.70;;;;;;5061012;28;20049;-45
2022/03/23 03:28:15;;;;;;;14.40;7.50;;;-1.20;97.30;;;;;;5039754;28;19909;-46
2022/03/23 03:31:44;;;;;;;17.10;8.60;;;-1.20;90.30;;;;;;5061448;28;20059;-46
2022/03/23 03:34:49;;;;;;;;;;;-1.20;98.50;;;;;;5070935;28;20033;-44
2022/03/23 03:38:14;;;;;;;15.50;6.85;;;-1.20;99.90;;;;;;5050661;28;19908;-44
2022/03/23 03:41:40;;;;;;;14.23;6.53;;;-1.30;95.00;;;;;;5068621;28;20029;-46
2022/03/23 03:45:05;;;;;;;11.25;6.05;;;-1.30;94.00;;;;;;5066240;28;20094;-45
2022/03/23 03:48:31;;;;;;;15.55;7.70;;;-1.40;95.80;;;;;;5044406;28;20032;-45
2022/03/23 03:51:57;;;;;;;14.38;6.57;;;-1.40;95.30;;;;;;5060763;28;20499;-44
2022/03/23 03:55:21;;;;;;;15.90;6.57;;;-1.40;96.10;;;;;;5067947;28;20064;-45
2022/03/23 03:58:48;;;;;;;14.18;6.47;;;-1.40;99.80;;;;;;5053202;28;20055;-46
2022/03/23 04:02:14;;;;;;;11.50;5.63;;;-1.50;97.70;;;;;;5065547;28;20045;-44
2022/03/23 04:05:37;;;;;;;17.35;6.97;;;-1.50;98.70;;;;;;5069350;28;20488;-45
2022/03/23 04:09:03;;;;;;;18.23;7.75;;;-1.50;99.90;;;;;;5045539;28;20025;-43
2022/03/23 04:12:28;;;;;;;14.80;7.05;;;-1.60;97.40;;;;;;5063854;28;20391;-44
2022/03/23 04:15:56;;;;;;;15.95;7.40;;;-1.60;99.40;;;;;;5031792;28;20142;-44
2022/03/23 04:19:06;;;;;;;;;;;-1.60;96.90;;;;;;5048468;28;20481;-47
2022/03/23 04:22:28;;;;;;;15.00;6.97;;;-1.60;99.90;;;;;;5032073;28;20400;-45
2022/03/23 04:25:53;;;;;;;14.55;7.30;;;-1.70;97.90;;;;;;5065320;28;20049;-50
2022/03/23 04:29:18;;;;;;;12.18;6.97;;;-1.70;99.90;;;;;;5048448;28;20045;-46
2022/03/23 04:32:44;;;;;;;15.52;7.05;;;-1.60;99.90;;;;;;5061296;28;20052;-45
2022/03/23 04:36:09;;;;;;;11.13;5.80;;;-1.70;99.90;;;;;;5051113;28;20029;-45
2022/03/23 04:39:34;;;;;;;18.42;7.30;;;-1.80;99.90;;;;;;5063481;28;20117;-45
2022/03/23 04:42:59;;;;;;;14.35;7.90;;;-1.80;99.90;;;;;;5051185;28;20037;-48
2022/03/23 04:46:25;;;;;;;14.38;7.40;;;-1.80;99.90;;;;;;5059919;28;20381;-46
2022/03/23 04:49:50;;;;;;;20.45;8.68;;;-1.80;99.90;;;;;;5059896;28;20029;-45
2022/03/23 04:53:16;;;;;;;12.70;6.43;;;-1.80;98.90;;;;;;5056458;28;20488;-50
2022/03/23 04:56:41;;;;;;;15.70;7.38;;;-1.80;99.90;;;;;;5065140;28;20036;-46
2022/03/23 05:00:10;;;;;;;20.02;7.65;;;-1.80;99.90;;;;;;5052566;28;20253;-44
2022/03/23 05:03:32;;;;;;;16.52;7.28;;;-1.80;99.90;;;;;;5061157;28;20041;-45
2022/03/23 05:06:57;;;;;;;17.30;8.45;;;-1.80;99.90;;;;;;5054653;28;20032;-43
2022/03/23 05:10:22;;;;;;;17.50;7.95;;;-1.80;99.90;;;;;;5050699;28;20040;-44
2022/03/23 05:13:49;;;;;;;19.48;7.40;;;-1.80;99.90;;;;;;5065529;28;20059;-44
2022/03/23 05:17:13;;;;;;;17.10;7.78;;;-1.70;99.90;;;;;;5039608;28;20040;-44
2022/03/23 05:20:38;;;;;;;21.45;9.27;;;-1.70;99.90;;;;;;5050714;28;20060;-44
2022/03/23 05:24:04;;;;;;;16.60;7.60;;;-1.60;99.90;;;;;;5064697;28;20044;-43
2022/03/23 05:27:29;;;;;;;19.23;7.63;;;-1.60;99.90;;;;;;5049430;28;20249;-44
2022/03/23 05:30:55;;;;;;;17.08;8.10;;;-1.50;99.90;;;;;;5050395;28;20044;-46
2022/03/23 05:34:20;;;;;;;14.85;7.05;;;-1.40;99.90;;;;;;5067088;28;20480;-46
2022/03/23 05:37:45;;;;;;;20.02;8.98;;;-1.10;99.90;;;;;;5064102;28;20029;-44
2022/03/23 05:41:11;;;;;;;18.92;8.30;;;-0.70;97.10;;;;;;5058894;28;20036;-46
2022/03/23 05:44:36;;;;;;;16.52;7.85;;;-0.60;97.30;;;;;;5064400;28;20051;-44
2022/03/23 05:48:01;;;;;;;26.38;10.15;;;-0.40;94.40;;;;;;5058783;28;20033;-50
2022/03/23 05:51:27;;;;;;;21.83;9.32;;;-0.20;92.00;;;;;;5049179;28;20443;-46
2022/03/23 05:54:52;;;;;;;18.15;8.23;;;2.00;89.20;;;;;;5062127;28;20036;-51
2022/03/23 05:58:17;;;;;;;17.23;8.10;;;4.70;61.00;;;;;;5045336;28;20551;-48
2022/03/23 06:01:43;;;;;;;21.10;9.88;;;6.90;44.40;;;;;;5058763;28;20036;-49
2022/03/23 06:04:28;;;;;;;16.80;8.90;;;8.70;34.00;;;;;;5032379;28;20045;-54
2022/03/23 06:06:54;;;;;;;21.55;10.30;;;10.10;28.80;;;;;;5069749;28;20035;-56
2022/03/23 06:09:20;;;;;;;22.90;10.57;;;11.10;25.80;;;;;;5049314;28;20453;-53
2022/03/23 06:12:25;;;;;;;16.27;10.23;;;12.00;23.20;;;;;;5069604;28;20032;-55
2022/03/23 06:15:11;;;;;;;17.15;10.45;;;12.90;20.60;;;;;;5047805;28;20059;-56
2022/03/23 06:18:16;;;;;;;26.55;12.43;;;13.60;19.70;;;;;;5068566;28;20111;-57
2022/03/23 06:21:42;;;;;;;18.48;10.15;;;14.30;18.90;;;;;;5046559;28;20037;-57
2022/03/23 06:25:07;;;;;;;20.08;10.80;;;15.20;15.60;;;;;;5057475;28;20053;-56
2022/03/23 06:28:32;;;;;;;22.00;11.88;;;15.90;13.60;;;;;;5022060;28;20033;-54
2022/03/23 06:31:58;;;;;;;24.10;12.50;;;16.60;11.70;;;;;;5064574;28;20095;-55
2022/03/23 06:35:26;;;;;;;19.60;11.32;;;17.40;12.10;;;;;;5055883;28;20043;-51
2022/03/23 06:38:50;;;;;;;23.67;12.98;;;17.80;7.50;;;;;;5050201;28;20451;-53
2022/03/23 06:42:14;;;;;;;16.55;10.63;;;18.60;9.90;;;;;;5060702;28;20119;-52
2022/03/23 06:45:40;;;;;;;26.38;14.23;;;19.20;8.90;;;;;;5061128;28;20491;-51
2022/03/23 06:49:05;;;;;;;18.48;12.25;;;20.10;7.80;;;;;;5028940;28;20120;-55
2022/03/23 06:52:30;;;;;;;18.75;12.50;;;20.70;7.00;;;;;;5057462;28;20744;-50
2022/03/23 06:55:55;;;;;;;22.60;13.02;;;21.30;3.30;;;;;;5051261;28;20070;-54
2022/03/23 06:59:21;;;;;;;24.85;13.48;;;21.80;4.70;;;;;;5065034;28;20033;-51
2022/03/23 07:02:46;;;;;;;19.17;12.77;;;22.70;2.30;;;;;;5066642;28;20059;-56
2022/03/23 07:06:12;;;;;;;24.98;14.25;;;23.30;1.00;;;;;;5052671;28;20033;-57
2022/03/23 07:09:40;;;;;;;23.75;15.63;;;24.20;2.80;;;;;;5057315;28;20742;-56
2022/03/23 07:13:02;;;;;;;26.00;17.55;;;25.00;2.20;;;;;;5063455;28;20036;-57
2022/03/23 07:16:28;;;;;;;26.50;17.30;;;25.50;1.00;;;;;;5042259;28;20052;-54
2022/03/23 07:19:53;;;;;;;25.60;16.90;;;26.10;1.00;;;;;;5027182;28;20045;-54
2022/03/23 07:23:18;;;;;;;26.15;18.38;;;26.60;1.00;;;;;;5051120;28;20052;-55
2022/03/23 07:26:44;;;;;;;22.65;15.88;;;27.00;1.00;;;;;;5056810;28;20048;-55
2022/03/23 07:30:09;;;;;;;29.60;18.63;;;27.20;1.00;;;;;;5064709;28;20032;-55
2022/03/23 07:33:34;;;;;;;25.33;16.58;;;27.30;1.00;;;;;;5028396;28;20037;-58
2022/03/23 07:37:00;;;;;;;27.75;18.60;;;27.40;1.00;;;;;;5045090;28;20036;-57
2022/03/23 07:39:45;;;;;;;23.77;18.13;;;26.60;1.00;;;;;;5039822;28;20041;-57
2022/03/23 07:42:51;;;;;;;25.05;17.13;;;26.70;1.00;;;;;;5064388;28;20519;-66
2022/03/23 07:46:17;;;;;;;24.08;17.10;;;27.30;1.00;;;;;;5061473;28;20058;-65
2022/03/23 07:49:41;;;;;;;26.75;17.92;;;27.60;1.00;;;;;;5055835;28;20452;-66
2022/03/23 07:53:07;;;;;;;27.90;18.45;;;27.50;1.00;;;;;;5061404;28;20044;-63
2022/03/23 07:56:32;;;;;;;28.63;19.05;;;26.90;1.00;;;;;;5038376;28;20037;-63
2022/03/23 07:59:57;;;;;;;25.65;19.00;;;27.30;1.00;;;;;;5063280;28;20043;-64
2022/03/23 08:03:23;;;;;;;28.98;20.65;;;26.60;1.00;;;;;;5065044;28;20117;-54
2022/03/23 08:06:48;;;;;;;25.67;18.77;;;26.20;1.00;;;;;;5046253;28;20111;-50
2022/03/23 08:10:14;;;;;;;21.70;16.58;;;26.50;1.00;;;;;;5058841;28;20404;-49
2022/03/23 08:13:39;;;;;;;26.40;17.52;;;27.70;1.00;;;;;;5059170;28;20134;-50
2022/03/23 08:17:04;;;;;;;26.48;18.88;;;28.30;1.00;;;;;;5043707;28;20508;-52
2022/03/23 08:20:33;;;;;;;22.67;17.63;;;28.80;1.00;;;;;;5036984;28;20123;-50
2022/03/23 08:23:58;;;;;;;23.05;17.83;;;28.80;1.00;;;;;;5055831;28;20090;-51
2022/03/23 08:27:24;;;;;;;25.20;17.08;;;28.10;1.00;;;;;;5054678;28;20115;-53
2022/03/23 08:30:49;;;;;;;23.23;17.58;;;28.70;1.00;;;;;;5050974;28;20036;-54
2022/03/23 08:34:14;;;;;;;25.27;17.10;;;28.30;1.00;;;;;;5029683;28;20495;-52
2022/03/23 08:37:40;;;;;;;23.52;17.50;;;28.20;1.00;;;;;;5064788;28;20174;-54
2022/03/23 08:41:05;;;;;;;26.73;17.80;;;28.50;1.00;;;;;;5056717;28;20407;-49
2022/03/23 08:44:30;;;;;;;22.85;17.45;;;28.60;1.00;;;;;;5029911;28;20037;-49
2022/03/23 08:47:56;;;;;;;23.45;18.23;;;29.00;1.00;;;;;;5066806;28;20700;-49
2022/03/23 08:51:21;;;;;;;23.95;17.95;;;29.10;1.00;;;;;;5049253;28;20059;-54
2022/03/23 08:54:46;;;;;;;17.33;14.15;;;28.40;1.00;;;;;;5063825;28;20052;-53
2022/03/23 08:58:12;;;;;;;19.38;15.23;;;28.70;1.00;;;;;;5063674;28;20041;-53
2022/03/23 09:01:37;;;;;;;21.90;15.85;;;29.20;1.00;;;;;;5047338;28;20041;-50
2022/03/23 09:05:03;;;;;;;19.60;14.57;;;28.70;1.00;;;;;;5029752;28;20037;-48
2022/03/23 09:08:28;;;;;;;17.33;13.57;;;28.90;1.00;;;;;;5057608;28;20040;-50
2022/03/23 09:11:53;;;;;;;17.95;13.57;;;29.30;1.00;;;;;;5044073;28;20041;-48
2022/03/23 09:15:19;;;;;;;20.85;13.73;;;29.20;1.00;;;;;;5057739;28;20067;-50
2022/03/23 09:18:44;;;;;;;19.20;13.85;;;29.70;1.00;;;;;;5063493;28;20141;-50
2022/03/23 09:22:09;;;;;;;17.85;14.52;;;29.60;1.00;;;;;;5048982;28;20036;-49
2022/03/23 09:25:35;;;;;;;17.40;12.63;;;30.30;1.00;;;;;;5044629;28;20394;-50
2022/03/23 09:29:00;;;;;;;18.10;13.57;;;29.80;1.00;;;;;;5043621;28;20065;-48
2022/03/23 09:32:25;;;;;;;15.07;12.95;;;30.20;1.00;;;;;;5063089;28;20673;-52
2022/03/23 09:35:51;;;;;;;17.80;14.13;;;30.00;1.00;;;;;;5060724;28;20032;-50
2022/03/23 09:39:16;;;;;;;14.73;12.25;;;30.00;1.00;;;;;;5028957;28;20215;-51
2022/03/23 09:42:57;;;;;;;15.65;11.88;;;30.30;1.00;;;;;;5053145;28;20052;-48
2022/03/23 09:46:22;;;;;;;19.30;14.32;;;30.80;1.00;;;;;;5047507;28;20126;-48
2022/03/23 09:49:47;;;;;;;18.65;14.93;;;30.80;1.00;;;;;;5057559;28;20032;-48
2022/03/23 09:53:13;;;;;;;18.77;12.93;;;30.80;1.00;;;;;;5065524;28;20040;-48
2022/03/23 09:56:38;;;;;;;15.70;13.02;;;30.80;1.00;;;;;;5045856;28;20045;-49
2022/03/23 10:00:03;;;;;;;18.23;12.18;;;30.90;1.00;;;;;;5056820;28;20039;-51
2022/03/23 10:02:58;;;;;;;15.50;13.10;;;31.10;1.00;;;;;;5062082;28;20691;-50
2022/03/23 10:06:25;;;;;;;19.27;14.07;;;31.10;1.00;;;;;;5042165;28;20037;-48
2022/03/23 10:09:26;;;;;;;15.20;12.63;;;31.10;1.00;;;;;;5057099;28;20090;-48
2022/03/23 10:12:42;;;;;;;17.80;13.20;;;30.90;1.00;;;;;;5046458;28;20037;-52
2022/03/23 10:15:39;;;;;;;17.67;13.80;;;29.70;1.00;;;;;;5051794;28;20108;-51
2022/03/23 10:19:10;;;;;;;16.20;14.00;;;28.10;1.00;;;;;;5053369;28;20072;-50
2022/03/23 10:22:35;;;;;;;18.95;14.75;;;27.00;1.00;;;;;;5055263;28;20124;-51
2022/03/23 10:26:01;;;;;;;17.95;14.07;;;26.80;1.00;;;;;;5059811;28;20041;-53
2022/03/23 10:29:27;;;;;;;19.08;15.73;;;24.70;1.00;;;;;;5028131;28;20041;-53
2022/03/23 10:32:58;;;;;;;18.23;15.23;;;22.20;1.00;;;;;;5062252;28;20044;-49
2022/03/23 10:36:24;;;;;;;18.20;14.25;;;20.70;1.00;;;;;;5046539;28;20041;-48
2022/03/23 10:39:49;;;;;;;24.33;15.63;;;19.80;1.00;;;;;;5057868;28;20036;-48
2022/03/23 10:43:20;;;;;;;26.23;16.77;;;19.30;1.00;;;;;;5061870;28;20396;-48
2022/03/23 10:46:49;;;;;;;20.08;14.93;;;18.90;1.00;;;;;;5043664;28;20034;-47
2022/03/23 10:50:14;;;;;;;21.73;16.08;;;18.50;1.00;;;;;;5055977;28;20039;-45
2022/03/23 10:53:57;;;;;;;22.88;15.90;;;18.10;1.00;;;;;;5055664;28;20041;-48
2022/03/23 10:57:23;;;;;;;22.10;15.02;;;17.90;1.00;;;;;;5062295;28;20036;-51
2022/03/23 11:00:48;;;;;;;26.27;17.88;;;17.80;1.00;;;;;;5027606;28;20470;-47
2022/03/23 11:04:17;;;;;;;24.85;16.42;;;17.60;1.00;;;;;;5056239;28;20035;-48
2022/03/23 11:07:51;;;;;;;20.38;14.43;;;17.50;1.00;;;;;;5047223;28;20036;-48
2022/03/23 11:18:14;;;;;;;21.42;15.27;;;17.50;1.00;;;;;;5054842;28;20040;-45
2022/03/23 11:21:39;;;;;;;19.52;14.10;;;17.60;1.00;;;;;;5056650;28;20123;-46
2022/03/23 11:24:47;;;;;;;24.08;16.65;;;17.60;1.00;;;;;;5052454;28;20033;-45
2022/03/23 11:27:56;;;;;;;22.45;15.15;;;17.50;1.00;;;;;;5014803;28;20041;-46
2022/03/23 11:31:01;;;;;;;;;;;17.50;1.00;;;;;;5056358;28;20045;-48
2022/03/23 11:34:30;;;;;;;22.33;15.75;;;17.60;1.00;;;;;;5027753;28;19917;-50
2022/03/23 11:37:35;;;;;;;;;;;17.70;1.00;;;;;;5050426;28;20684;-48
2022/03/23 11:41:00;;;;;;;18.33;12.60;;;17.70;1.00;;;;;;5031526;28;19955;-49
2022/03/23 11:44:26;;;;;;;20.90;15.68;;;17.70;1.00;;;;;;5065694;28;20041;-50
2022/03/23 11:47:51;;;;;;;22.90;14.48;;;17.80;1.00;;;;;;5050286;28;20049;-46
2022/03/23 11:51:25;;;;;;;18.60;13.55;;;17.80;1.00;;;;;;5063311;28;20705;-48
2022/03/23 11:55:37;;;;;;;16.35;10.93;;;17.80;1.00;;;;;;5067654;28;20048;-47
2022/03/23 11:57:54;;;;;;;24.15;13.60;;;17.80;1.00;;;;;;5049972;28;20116;-46
2022/03/23 12:01:27;;;;;;;20.25;13.52;;;17.80;1.00;;;;;;5050192;28;20113;-45
2022/03/23 12:04:21;;;;;;;19.40;12.52;;;17.70;1.00;;;;;;5059762;28;20036;-45
2022/03/23 12:07:00;;;;;;;18.60;13.13;;;17.70;1.00;;;;;;5037018;28;20032;-51
2022/03/23 12:10:08;;;;;;;16.13;11.93;;;17.60;1.00;;;;;;5069160;28;20055;-49
2022/03/23 12:13:36;;;;;;;11.75;9.63;;;17.60;1.00;;;;;;5030674;28;20444;-52
2022/03/23 12:16:51;;;;;;;16.77;10.93;;;17.60;1.00;;;;;;5065969;28;20033;-54
2022/03/23 12:19:54;;;;;;;26.23;16.48;;;17.60;1.00;;;;;;5057147;28;20074;-54
2022/03/23 12:23:36;;;;;;;21.27;15.68;;;17.60;1.00;;;;;;5052105;28;20404;-53
2022/03/23 12:27:06;;;;;;;19.40;12.95;;;17.50;1.00;;;;;;5062271;28;20498;-47
2022/03/23 12:30:35;;;;;;;19.40;12.48;;;17.50;1.00;;;;;;5064980;28;20059;-48
2022/03/23 12:34:16;;;;;;;19.27;13.30;;;17.60;1.00;;;;;;5030504;28;20081;-50
2022/03/23 12:37:56;;;;;;;28.00;17.90;;;17.70;1.00;;;;;;5058501;28;20032;-49
2022/03/23 12:41:21;;;;;;;20.02;14.77;;;17.70;1.00;;;;;;5049044;28;20041;-50
2022/03/23 12:44:50;;;;;;;20.92;15.38;;;17.60;1.00;;;;;;5066685;28;20040;-47
2022/03/23 12:58:30;;;;;;;30.73;16.27;;;17.60;1.00;;;;;;5029696;28;20103;-50
2022/03/23 13:01:35;;;;;;;;;;;17.60;1.00;;;;;;5043709;28;20120;-50
2022/03/23 13:05:19;;;;;;;16.27;12.15;;;17.60;1.00;;;;;;5046650;28;19908;-45
2022/03/23 13:08:56;;;;;;;16.20;11.38;;;17.60;1.00;;;;;;5058093;28;20555;-50
2022/03/23 13:12:22;;;;;;;22.55;16.00;;;17.60;1.00;;;;;;5028024;28;20028;-49
2022/03/23 13:15:50;;;;;;;24.30;14.65;;;17.60;1.00;;;;;;5059252;28;20068;-48
2022/03/23 13:19:19;;;;;;;24.63;16.38;;;17.60;1.00;;;;;;5061655;28;20104;-50
2022/03/23 13:22:24;;;;;;;;;;;17.70;1.00;;;;;;5030287;28;20038;-52
2022/03/23 13:25:49;;;;;;;28.30;16.73;;;17.60;1.00;;;;;;5059313;28;19917;-52
2022/03/23 13:29:15;;;;;;;20.30;13.77;;;17.60;2.00;;;;;;5052393;28;20029;-52
2022/03/23 13:32:40;;;;;;;23.15;15.52;;;17.70;2.60;;;;;;5049756;28;20122;-50
2022/03/23 13:36:06;;;;;;;26.65;16.83;;;17.70;1.90;;;;;;5063984;28;20044;-53
2022/03/23 13:39:31;;;;;;;29.45;20.25;;;17.70;1.20;;;;;;5063091;28;20032;-49
2022/03/23 13:43:20;;;;;;;29.70;19.42;;;17.70;1.70;;;;;;5029314;28;20041;-52
2022/03/23 13:46:25;;;;;;;;;;;17.70;1.80;;;;;;5067662;28;20524;-48
2022/03/23 13:49:51;;;;;;;33.78;22.45;;;17.50;2.00;;;;;;5042910;28;20435;-47
2022/03/23 13:53:18;;;;;;;25.80;18.67;;;17.50;1.80;;;;;;5057587;28;20040;-51
2022/03/23 13:56:42;;;;;;;40.45;20.52;;;17.60;2.10;;;;;;5063057;28;20047;-49
2022/03/23 14:00:07;;;;;;;24.30;17.45;;;17.50;2.00;;;;;;5064123;28;20119;-52
2022/03/23 14:03:33;;;;;;;32.55;19.70;;;17.40;2.10;;;;;;5064963;28;20032;-51
2022/03/23 14:07:07;;;;;;;27.73;19.90;;;17.50;2.30;;;;;;5057226;28;20056;-53
2022/03/23 14:10:33;;;;;;;30.95;20.02;;;17.50;2.20;;;;;;5046792;28;20062;-50
2022/03/23 14:13:58;;;;;;;24.33;16.80;;;17.40;2.30;;;;;;5062607;28;20036;-49
2022/03/23 14:17:05;;;;;;;26.02;18.25;;;17.30;2.30;;;;;;5028708;28;20501;-49
2022/03/23 14:20:12;;;;;;;;;;;17.30;2.20;;;;;;5054037;28;20076;-49
2022/03/23 14:23:36;;;;;;;29.00;19.70;;;17.30;2.40;;;;;;5028508;28;19916;-49
2022/03/23 14:26:47;;;;;;;26.42;17.98;;;17.20;2.10;;;;;;5032882;28;20052;-53
2022/03/23 14:29:55;;;;;;;26.48;18.17;;;17.20;2.00;;;;;;5051815;28;20029;-50
2022/03/23 14:32:50;;;;;;;27.25;18.58;;;17.20;2.40;;;;;;5028133;28;20111;-52
2022/03/23 14:36:15;;;;;;;28.58;19.58;;;17.20;2.40;;;;;;5046035;28;20072;-49
2022/03/23 14:39:41;;;;;;;25.65;18.48;;;17.10;2.40;;;;;;5062070;28;20377;-50
2022/03/23 14:43:06;;;;;;;33.25;20.67;;;17.00;2.30;;;;;;5028111;28;20053;-54
2022/03/23 14:46:20;;;;;;;26.77;18.58;;;17.00;2.20;;;;;;5064374;28;20660;-47
2022/03/23 14:49:26;;;;;;;29.23;20.23;;;16.90;2.20;;;;;;5046780;28;20441;-54
2022/03/23 14:52:51;;;;;;;34.17;21.92;;;16.90;2.20;;;;;;5050917;28;20048;-49
2022/03/23 14:55:21;;;;;;;31.77;19.27;;;16.80;2.10;;;;;;5028069;28;20030;-53
2022/03/23 14:58:27;;;;;;;32.55;21.52;;;16.80;2.20;;;;;;5067179;28;20051;-48
2022/03/23 15:01:57;;;;;;;30.00;18.25;;;16.70;2.10;;;;;;5063835;28;20051;-48
2022/03/23 15:15:29;;;;;;;23.55;16.67;;;16.50;2.40;;;;;;5057254;28;20602;-49
2022/03/23 15:18:55;;;;;;;27.98;16.90;;;16.40;2.30;;;;;;5031340;28;20464;-49
2022/03/23 15:22:21;;;;;;;25.73;17.17;;;16.40;2.40;;;;;;5027749;28;20398;-49
2022/03/23 15:25:45;;;;;;;26.15;18.38;;;16.30;2.30;;;;;;5061165;28;20070;-51
2022/03/23 15:29:11;;;;;;;24.15;16.40;;;16.20;2.60;;;;;;5045662;28;20024;-51
2022/03/23 15:32:36;;;;;;;22.67;15.02;;;16.20;2.10;;;;;;5027816;28;20045;-53
2022/03/23 15:36:05;;;;;;;25.15;16.17;;;16.20;2.20;;;;;;5056106;28;20037;-52
2022/03/23 15:39:27;;;;;;;23.52;17.33;;;16.10;1.80;;;;;;5039325;28;20077;-51
2022/03/23 15:43:05;;;;;;;25.13;15.55;;;16.10;1.60;;;;;;5056302;28;20091;-50
2022/03/23 15:46:30;;;;;;;20.65;13.57;;;16.00;1.20;;;;;;5056259;28;20037;-49
2022/03/23 15:49:55;;;;;;;24.13;15.02;;;15.90;1.40;;;;;;5042759;28;20040;-51
2022/03/23 15:53:20;;;;;;;24.05;16.45;;;15.80;1.20;;;;;;5027135;28;20042;-50
2022/03/23 15:56:46;;;;;;;18.02;13.63;;;15.70;1.60;;;;;;5027675;28;20103;-52
2022/03/23 16:00:11;;;;;;;21.55;14.30;;;15.60;1.80;;;;;;5048448;28;20044;-53
2022/03/23 16:03:36;;;;;;;19.90;14.68;;;15.50;2.10;;;;;;5060544;28;20432;-53
2022/03/23 16:07:03;;;;;;;18.45;13.48;;;15.40;1.70;;;;;;5061729;28;20029;-51
2022/03/23 16:10:27;;;;;;;20.52;14.38;;;15.30;1.70;;;;;;5027673;28;20500;-50
2022/03/23 16:13:54;;;;;;;20.50;14.07;;;15.30;1.60;;;;;;5044646;28;20041;-54
2022/03/23 16:17:19;;;;;;;27.50;14.48;;;15.20;2.00;;;;;;5060892;28;20045;-54
2022/03/23 16:20:43;;;;;;;20.52;13.43;;;15.10;2.00;;;;;;5047770;28;20044;-51
2022/03/23 16:24:09;;;;;;;20.40;12.80;;;15.00;2.30;;;;;;5066703;28;20056;-53
2022/03/23 16:27:34;;;;;;;18.17;12.85;;;14.90;2.40;;;;;;5050729;28;20056;-48
2022/03/23 16:31:00;;;;;;;17.98;10.75;;;14.70;2.80;;;;;;5050800;28;20474;-50
2022/03/23 16:34:25;;;;;;;20.38;13.57;;;14.60;3.00;;;;;;5063418;28;20098;-49
2022/03/23 16:37:51;;;;;;;21.27;13.82;;;14.40;3.50;;;;;;5063004;28;20060;-48
2022/03/23 16:41:34;;;;;;;25.55;16.30;;;14.40;3.70;;;;;;5058471;28;20036;-49
2022/03/23 16:44:59;;;;;;;22.27;13.73;;;14.40;4.00;;;;;;5031326;28;20638;-48
2022/03/23 16:48:24;;;;;;;22.42;13.88;;;14.20;4.30;;;;;;5050692;28;20033;-52
2022/03/23 16:51:50;;;;;;;24.55;14.23;;;14.00;4.60;;;;;;5059498;28;20492;-50
2022/03/23 16:55:15;;;;;;;25.38;16.17;;;14.00;5.40;;;;;;5053988;28;20049;-53
2022/03/23 16:58:41;;;;;;;22.02;14.32;;;13.90;5.80;;;;;;5059578;28;20036;-53
2022/03/23 17:02:06;;;;;;;24.73;14.07;;;13.70;6.20;;;;;;5057586;28;20036;-53
2022/03/23 17:12:31;;;;;;;21.08;13.10;;;13.20;7.50;;;;;;5036420;28;20120;-53
2022/03/23 17:15:57;;;;;;;24.40;13.13;;;13.10;7.90;;;;;;5030328;28;20116;-53
2022/03/23 17:19:21;;;;;;;17.30;11.38;;;12.90;8.10;;;;;;5059051;28;20033;-53
2022/03/23 17:22:47;;;;;;;20.80;12.07;;;12.70;8.40;;;;;;5049630;28;20405;-49
2022/03/23 17:26:13;;;;;;;21.75;12.20;;;12.50;8.80;;;;;;5064227;28;20090;-49
2022/03/23 17:29:39;;;;;;;19.33;11.52;;;12.40;9.50;;;;;;5068499;28;20467;-46
2022/03/23 17:33:03;;;;;;;22.48;12.52;;;12.20;9.80;;;;;;5065741;28;20045;-47
2022/03/23 17:36:28;;;;;;;24.17;13.07;;;12.10;10.10;;;;;;5062356;28;20548;-47
2022/03/23 17:39:54;;;;;;;19.45;13.25;;;12.00;11.10;;;;;;5052344;28;20043;-46
2022/03/23 17:43:02;;;;;;;18.90;11.15;;;11.80;11.50;;;;;;5029275;28;20497;-49
2022/03/23 17:45:28;;;;;;;17.38;10.70;;;11.60;12.10;;;;;;5011219;28;20053;-46
2022/03/23 17:47:53;;;;;;;20.20;11.80;;;11.50;11.60;;;;;;5067858;28;20067;-48